• pl
  • eng

Awiacja
TAF FT 01:00 01.01.1970

TAF EPBY 230530Z 2306/2406 11008KT 3000 BR BKN013
PROB40 2306/2308 1500 BR BKN004
BECMG 2309/2312 CAVOK
PROB40 2400/2406 3000 BR BKN010=

TAF EPGD 230530Z 2306/2406 13010KT 4500 BR NSC
BECMG 2308/2310 CAVOK=

TAF EPKK 230530Z 2306/2406 06010KT 6000 BKN005
TEMPO 2306/2308 3000 BR
BECMG 2308/2310 BKN012
TEMPO 2318/2406 4000 BR -SN BKN004=

TAF EPKT 230530Z 2306/2406 09010KT 7000 BKN004
TEMPO 2306/2308 3000 BR
BECMG 2306/2308 BKN009
BECMG 2309/2311 BKN016
TEMPO 2318/2406 4000 BR BKN011=

TAF EPLL 230530Z 2306/2406 09012KT 9999 BKN020
PROB40 2306/2309 -SN BKN010
PROB40 2318/2406 -SN BKN014=

TAF EPMO 230530Z 2306/2406 09010KT 9999 BKN025
PROB30 2306/2309 -SN BKN012
PROB40 2317/2406 -SN BKN014=

TAF EPPO 230530Z 2306/2406 10010KT 4000 BR OVC012
BECMG 2306/2308 6000 OVC016
TEMPO 2308/2312 OVC013
TEMPO 2403/2406 BKN007 OVC013=

TAF EPRZ 230530Z 2306/2406 07010KT 8000 BKN011
TEMPO 2306/2309 4000 BR -SN BKN008
BECMG 2309/2311 BKN016
TEMPO 2317/2406 4000 BR BKN009=

TAF EPSC 230530Z 2306/2406 12010KT 3000 BR OVC005
PROB40 2306/2308 1500 BR BKN002
BECMG 2309/2312 7000 SCT015 BKN033=

TAF EPWA 230530Z 2306/2406 09010KT 9999 BKN025
PROB30 2306/2309 -SN BKN012
PROB40 2318/2406 -SN BKN014=

TAF EPWR 230530Z 2306/2406 11011KT 2000 BR OVC003
BECMG 2306/2309 4000 BR OVC005
PROB30 TEMPO 2306/2309 DRSN
BECMG 2309/2312 6000 OVC013
TEMPO 2312/2406 BKN007 OVC010=
Awiacja.imgw.pl jest pogodowym serwisem informacyjnym
Instytutu Meteorologii i Gospodarki Wodnej Państwowego Instytutu Badawczego.
Copyright IMGW PIB 2009-2011© Wszelkie prawa zastrzeżone.